createdAt,value
2022-11-13T00:00:06.470Z,64.50
2022-11-13T00:00:37.934Z,64.40
2022-11-13T00:01:09.425Z,64.40
2022-11-13T00:01:40.895Z,64.50
2022-11-13T00:02:12.402Z,64.50
2022-11-13T00:02:43.988Z,64.50
2022-11-13T00:03:15.514Z,64.40
2022-11-13T00:03:46.972Z,64.50
2022-11-13T00:04:18.439Z,64.40
2022-11-13T00:04:49.912Z,64.40
2022-11-13T00:05:21.374Z,64.40
2022-11-13T00:05:52.836Z,64.40
2022-11-13T00:06:24.315Z,64.40
2022-11-13T00:06:59.097Z,64.50
2022-11-13T00:07:31.178Z,64.50
2022-11-13T00:08:02.678Z,64.30
2022-11-13T00:08:34.253Z,64.50
2022-11-13T00:09:05.729Z,64.40
2022-11-13T00:09:37.207Z,64.50
2022-11-13T00:10:08.675Z,64.40
2022-11-13T00:10:40.154Z,64.50
2022-11-13T00:11:11.623Z,64.50
2022-11-13T00:11:43.092Z,64.40
2022-11-13T00:12:14.567Z,64.40
2022-11-13T00:12:46.067Z,64.40
2022-11-13T00:13:17.614Z,64.40
2022-11-13T00:13:49.077Z,64.40
2022-11-13T00:14:20.554Z,64.40
2022-11-13T00:14:52.080Z,64.40
2022-11-13T00:15:23.548Z,64.40
2022-11-13T00:15:55.023Z,64.40
2022-11-13T00:16:26.483Z,64.50
2022-11-13T00:16:58.228Z,64.30
2022-11-13T00:17:29.807Z,65.20
2022-11-13T00:18:01.267Z,64.30
2022-11-13T00:18:32.736Z,64.30
2022-11-13T00:19:04.240Z,64.50
2022-11-13T00:19:35.704Z,64.50
2022-11-13T00:20:07.206Z,64.50
2022-11-13T00:20:38.679Z,64.70
2022-11-13T00:21:10.144Z,64.70
2022-11-13T00:21:41.610Z,64.70
2022-11-13T00:22:13.073Z,64.70
2022-11-13T00:22:44.547Z,64.70
2022-11-13T00:23:16.017Z,64.50
2022-11-13T00:23:47.497Z,64.40
2022-11-13T00:24:18.955Z,64.40
2022-11-13T00:24:50.422Z,64.40
2022-11-13T00:25:21.905Z,64.40
2022-11-13T00:25:53.363Z,64.40
2022-11-13T00:26:24.823Z,64.40
2022-11-13T00:26:56.279Z,64.40
2022-11-13T00:27:27.763Z,64.40
2022-11-13T00:27:59.220Z,64.40
2022-11-13T00:28:30.986Z,64.40
2022-11-13T00:29:02.530Z,64.30
2022-11-13T00:29:34.015Z,64.30
2022-11-13T00:30:05.480Z,64.40
2022-11-13T00:30:36.971Z,64.40
2022-11-13T00:31:08.431Z,64.30
2022-11-13T00:31:39.902Z,64.40
2022-11-13T00:32:11.377Z,64.30
2022-11-13T00:32:42.877Z,64.20
2022-11-13T00:33:18.926Z,64.40
2022-11-13T00:34:49.630Z,64.30
2022-11-13T00:35:21.105Z,64.30
2022-11-13T00:35:52.587Z,64.20
2022-11-13T00:36:26.299Z,64.20
2022-11-13T00:36:58.129Z,64.20
2022-11-13T00:37:29.597Z,64.20
2022-11-13T00:38:01.079Z,64.10
2022-11-13T00:38:32.554Z,64.20
2022-11-13T00:39:04.024Z,64.30
2022-11-13T00:39:35.492Z,64.20
2022-11-13T00:40:06.968Z,64.10
2022-11-13T00:40:38.424Z,64.20
2022-11-13T00:41:09.908Z,64.20
2022-11-13T00:41:41.383Z,64.20
2022-11-13T00:42:12.854Z,64.20
2022-11-13T00:42:44.415Z,64.20
2022-11-13T00:43:15.899Z,64.30
2022-11-13T00:43:47.363Z,64.30
2022-11-13T00:44:18.835Z,64.10
2022-11-13T00:44:50.312Z,64.20
2022-11-13T00:45:21.799Z,64.20
2022-11-13T00:45:53.285Z,64.20
2022-11-13T00:46:24.748Z,64.10
2022-11-13T00:46:56.228Z,64.20
2022-11-13T00:47:27.704Z,64.30
2022-11-13T00:47:59.261Z,64.30
2022-11-13T00:48:30.939Z,64.30
2022-11-13T00:49:02.555Z,64.30
2022-11-13T00:49:34.030Z,64.40
2022-11-13T00:50:05.494Z,64.40
2022-11-13T00:50:36.962Z,64.50
2022-11-13T00:51:08.438Z,64.30
2022-11-13T00:51:39.891Z,64.40
2022-11-13T00:52:11.373Z,64.40
2022-11-13T00:52:42.869Z,64.40
2022-11-13T00:53:18.098Z,64.40
2022-11-13T00:53:49.923Z,64.30
2022-11-13T00:54:21.387Z,64.20
2022-11-13T00:54:52.853Z,64.30
2022-11-13T00:55:24.340Z,64.30
2022-11-13T00:55:55.813Z,64.30
2022-11-13T00:56:27.315Z,64.40
2022-11-13T00:56:58.883Z,64.20
2022-11-13T00:57:30.378Z,64.30
2022-11-13T00:58:01.848Z,64.30
2022-11-13T00:58:33.360Z,64.20
2022-11-13T00:59:04.832Z,64.30
2022-11-13T00:59:36.313Z,64.20
2022-11-13T01:00:07.806Z,64.20
2022-11-13T01:00:39.275Z,64.20
2022-11-13T01:01:10.772Z,64.20
2022-11-13T01:01:42.313Z,64.20
2022-11-13T01:02:13.845Z,64.20
2022-11-13T01:02:45.369Z,64.20
2022-11-13T01:03:16.913Z,64.30
2022-11-13T01:03:48.390Z,64.60
2022-11-13T01:04:19.856Z,64.30
2022-11-13T01:04:51.323Z,64.20
2022-11-13T01:05:22.799Z,64.20
2022-11-13T01:05:54.339Z,64.20
2022-11-13T01:06:25.884Z,64.20
2022-11-13T01:06:57.419Z,64.20
2022-11-13T01:07:28.952Z,64.10
2022-11-13T01:08:00.418Z,64.10
2022-11-13T01:08:31.879Z,64.20
2022-11-13T01:09:03.382Z,64.20
2022-11-13T01:09:34.892Z,64.20
2022-11-13T01:10:06.360Z,64.10
2022-11-13T01:10:37.834Z,64.10
2022-11-13T01:11:09.313Z,64.10
2022-11-13T01:11:40.788Z,64.00
2022-11-13T01:12:12.299Z,64.10
2022-11-13T01:12:43.822Z,64.10
2022-11-13T01:13:15.298Z,64.10
2022-11-13T01:13:46.777Z,64.10
2022-11-13T01:14:18.289Z,64.00
2022-11-13T01:14:49.760Z,64.10
2022-11-13T01:15:21.308Z,64.10
2022-11-13T01:15:52.773Z,64.20
2022-11-13T01:16:24.263Z,64.10
2022-11-13T01:16:55.728Z,64.20
2022-11-13T01:17:27.193Z,64.10
2022-11-13T01:17:58.659Z,64.20
2022-11-13T01:18:30.248Z,64.30
2022-11-13T01:19:01.966Z,64.20
2022-11-13T01:19:33.446Z,64.20
2022-11-13T01:20:04.925Z,64.30
2022-11-13T01:20:36.405Z,64.10
2022-11-13T01:21:07.887Z,64.10
2022-11-13T01:21:39.379Z,64.10
2022-11-13T01:22:10.838Z,64.20
2022-11-13T01:22:42.306Z,64.20
2022-11-13T01:23:13.777Z,64.20
2022-11-13T01:23:45.297Z,64.20
2022-11-13T01:24:16.786Z,64.30
2022-11-13T01:24:48.337Z,64.20
2022-11-13T01:25:19.825Z,64.20
2022-11-13T01:25:51.287Z,64.20
2022-11-13T01:26:22.756Z,64.30
2022-11-13T01:26:54.242Z,64.10
2022-11-13T01:27:25.706Z,64.10
2022-11-13T01:27:57.174Z,64.20
2022-11-13T01:28:28.807Z,64.00
2022-11-13T01:29:00.443Z,64.20
2022-11-13T01:29:31.927Z,64.10
2022-11-13T01:30:03.394Z,64.00
2022-11-13T01:30:34.856Z,64.00
2022-11-13T01:31:06.362Z,64.00
2022-11-13T01:31:37.870Z,64.00
2022-11-13T01:32:09.363Z,64.10
2022-11-13T01:32:40.827Z,64.00
2022-11-13T01:33:12.295Z,64.00
2022-11-13T01:33:43.777Z,64.00
2022-11-13T01:34:15.243Z,64.20
2022-11-13T01:34:46.725Z,64.00
2022-11-13T01:35:18.269Z,64.10
2022-11-13T01:35:49.792Z,64.20
2022-11-13T01:36:21.295Z,64.00
2022-11-13T01:36:52.964Z,64.10
2022-11-13T01:37:24.437Z,64.00
2022-11-13T01:37:55.909Z,64.10
2022-11-13T01:38:27.714Z,64.00
2022-11-13T01:38:59.364Z,64.00
2022-11-13T01:39:30.833Z,64.00
2022-11-13T01:40:02.318Z,64.00
2022-11-13T01:40:33.782Z,64.00
2022-11-13T01:41:05.253Z,64.00
2022-11-13T01:41:36.727Z,64.00
2022-11-13T01:42:08.245Z,64.00
2022-11-13T01:42:39.711Z,64.00
2022-11-13T01:43:11.178Z,64.00
2022-11-13T01:43:42.645Z,64.00
2022-11-13T01:44:14.109Z,63.90
2022-11-13T01:44:45.585Z,64.00
2022-11-13T01:45:17.065Z,64.00
2022-11-13T01:45:48.526Z,64.00
2022-11-13T01:46:20.018Z,64.00
2022-11-13T01:46:51.493Z,64.00
2022-11-13T01:47:22.959Z,64.00
2022-11-13T01:47:54.425Z,64.10
2022-11-13T01:48:26.280Z,64.20
2022-11-13T01:48:57.984Z,64.10
2022-11-13T01:49:29.449Z,64.00
2022-11-13T01:50:00.916Z,64.10
2022-11-13T01:50:32.385Z,64.00
2022-11-13T01:51:03.865Z,64.00
2022-11-13T01:51:35.354Z,64.00
2022-11-13T01:52:06.835Z,63.90
2022-11-13T01:52:38.303Z,63.80
2022-11-13T01:53:09.767Z,63.90
2022-11-13T01:53:41.236Z,63.80
2022-11-13T01:54:12.707Z,64.00
2022-11-13T01:54:44.198Z,64.00
2022-11-13T01:55:15.665Z,63.90
2022-11-13T01:55:47.129Z,64.00
2022-11-13T01:56:18.594Z,63.90
2022-11-13T01:56:50.065Z,63.90
2022-11-13T01:57:21.556Z,63.90
2022-11-13T01:57:53.023Z,63.90
2022-11-13T01:58:24.599Z,63.90
2022-11-13T01:58:56.176Z,64.00
2022-11-13T01:59:27.651Z,63.90
2022-11-13T01:59:59.116Z,63.90
2022-11-13T02:00:30.584Z,63.90
2022-11-13T02:01:02.055Z,64.70
2022-11-13T02:01:33.570Z,63.90
2022-11-13T02:02:05.125Z,63.90
2022-11-13T02:02:36.617Z,63.90
2022-11-13T02:03:08.095Z,64.00
2022-11-13T02:03:39.569Z,63.90
2022-11-13T02:04:11.028Z,63.90
2022-11-13T02:04:42.729Z,63.90
2022-11-13T02:05:14.212Z,64.70
2022-11-13T02:05:45.680Z,63.90
2022-11-13T02:06:17.149Z,63.90
2022-11-13T02:06:48.755Z,63.90
2022-11-13T02:07:20.293Z,63.90
2022-11-13T02:07:51.765Z,64.00
2022-11-13T02:08:23.232Z,63.90
2022-11-13T02:08:54.707Z,64.00
2022-11-13T02:09:26.200Z,63.90
2022-11-13T02:09:57.716Z,63.90
2022-11-13T02:10:29.323Z,63.90
2022-11-13T02:11:00.801Z,63.80
2022-11-13T02:11:32.272Z,63.70
2022-11-13T02:12:03.748Z,63.90
2022-11-13T02:12:35.220Z,63.80
2022-11-13T02:13:06.676Z,63.70
2022-11-13T02:13:38.141Z,63.70
2022-11-13T02:14:09.607Z,63.50
2022-11-13T02:14:41.096Z,63.60
2022-11-13T02:15:12.573Z,63.60
2022-11-13T02:15:44.045Z,63.40
2022-11-13T02:16:15.585Z,63.50
2022-11-13T02:16:47.047Z,63.50
2022-11-13T02:17:18.517Z,63.50
2022-11-13T02:17:49.981Z,63.50
2022-11-13T02:18:21.461Z,63.60
2022-11-13T02:18:52.945Z,63.70
2022-11-13T02:19:24.425Z,63.70
2022-11-13T02:19:55.887Z,63.70
2022-11-13T02:20:27.344Z,63.70
2022-11-13T02:20:58.810Z,63.60
2022-11-13T02:21:30.279Z,63.70
2022-11-13T02:22:01.742Z,63.80
2022-11-13T02:22:33.284Z,63.60
2022-11-13T02:23:04.768Z,63.70
2022-11-13T02:23:36.234Z,63.70
2022-11-13T02:24:07.706Z,63.70
2022-11-13T02:24:42.143Z,63.70
2022-11-13T02:25:16.412Z,63.70
2022-11-13T02:25:47.875Z,63.70
2022-11-13T02:26:19.341Z,63.80
2022-11-13T02:26:50.798Z,63.70
2022-11-13T02:27:22.281Z,63.70
2022-11-13T02:27:53.777Z,63.70
2022-11-13T02:28:25.610Z,63.70
2022-11-13T02:28:57.339Z,63.70
2022-11-13T02:29:28.843Z,63.70
2022-11-13T02:30:00.344Z,63.70
2022-11-13T02:30:31.812Z,63.80
2022-11-13T02:31:03.362Z,63.70
2022-11-13T02:31:34.835Z,63.80
2022-11-13T02:32:06.315Z,63.80
2022-11-13T02:32:37.787Z,63.80
2022-11-13T02:33:09.243Z,63.70
2022-11-13T02:33:40.707Z,63.90
2022-11-13T02:34:12.168Z,63.80
2022-11-13T02:34:43.648Z,63.70
2022-11-13T02:35:15.119Z,63.80
2022-11-13T02:35:46.592Z,63.80
2022-11-13T02:36:18.059Z,63.70
2022-11-13T02:36:49.523Z,63.70
2022-11-13T02:37:21.012Z,63.90
2022-11-13T02:37:52.490Z,63.80
2022-11-13T02:38:23.949Z,63.80
2022-11-13T02:38:55.425Z,63.80
2022-11-13T02:39:26.905Z,63.80
2022-11-13T02:39:58.395Z,63.80
2022-11-13T02:40:29.895Z,63.80
2022-11-13T02:41:01.386Z,63.90
2022-11-13T02:41:32.870Z,63.80
2022-11-13T02:42:04.375Z,63.80
2022-11-13T02:42:35.850Z,63.80
2022-11-13T02:43:07.341Z,63.80
2022-11-13T02:43:38.814Z,63.70
2022-11-13T02:44:10.283Z,63.70
2022-11-13T02:44:41.773Z,63.70
2022-11-13T02:45:13.250Z,63.70
2022-11-13T02:45:44.729Z,63.80
2022-11-13T02:46:16.196Z,63.60
2022-11-13T02:46:47.682Z,63.60
2022-11-13T02:47:19.142Z,63.70
2022-11-13T02:47:50.636Z,63.70
2022-11-13T02:48:22.115Z,63.50
2022-11-13T02:48:53.577Z,63.50
2022-11-13T02:49:25.052Z,63.30
2022-11-13T02:49:56.524Z,63.40
2022-11-13T02:50:27.995Z,63.30
2022-11-13T02:50:59.464Z,63.20
2022-11-13T02:51:30.935Z,63.10
2022-11-13T02:52:02.438Z,63.00
2022-11-13T02:52:34.032Z,63.10
2022-11-13T02:53:05.574Z,63.20
2022-11-13T02:53:37.093Z,63.20
2022-11-13T02:54:11.738Z,63.30
2022-11-13T02:54:45.663Z,63.20
2022-11-13T02:55:17.147Z,63.30
2022-11-13T02:55:48.639Z,63.30
2022-11-13T02:56:20.099Z,63.30
2022-11-13T02:56:51.577Z,63.40
2022-11-13T02:57:23.038Z,63.40
2022-11-13T02:57:54.500Z,63.50
2022-11-13T02:58:26.389Z,63.30
2022-11-13T02:58:58.149Z,63.50
2022-11-13T02:59:29.621Z,63.50
2022-11-13T03:00:01.105Z,63.60
2022-11-13T03:00:32.565Z,63.50
2022-11-13T03:01:04.043Z,63.60
2022-11-13T03:01:35.596Z,63.60
2022-11-13T03:02:07.204Z,63.50
2022-11-13T03:02:38.753Z,63.60
2022-11-13T03:03:10.229Z,63.60
2022-11-13T03:03:57.137Z,63.60
2022-11-13T03:04:50.143Z,63.60
2022-11-13T03:05:20.893Z,63.50
2022-11-13T03:05:52.404Z,63.50
2022-11-13T03:06:23.905Z,63.60
2022-11-13T03:06:55.386Z,63.60
2022-11-13T03:07:26.895Z,63.60
2022-11-13T03:07:58.366Z,63.60
2022-11-13T03:08:31.540Z,63.60
2022-11-13T03:09:03.550Z,63.60
2022-11-13T03:09:35.033Z,63.60
2022-11-13T03:10:06.547Z,63.60
2022-11-13T03:10:38.065Z,63.60
2022-11-13T03:11:09.527Z,63.50
2022-11-13T03:11:41.003Z,63.50
2022-11-13T03:12:12.465Z,63.60
2022-11-13T03:12:43.933Z,63.50
2022-11-13T03:13:15.401Z,63.50
2022-11-13T03:13:47.090Z,63.50
2022-11-13T03:14:18.555Z,63.30
2022-11-13T03:14:50.015Z,63.50
2022-11-13T03:15:21.503Z,63.50
2022-11-13T03:15:52.983Z,63.20
2022-11-13T03:16:24.457Z,63.20
2022-11-13T03:16:55.924Z,63.20
2022-11-13T03:17:27.387Z,63.10
2022-11-13T03:17:58.869Z,63.20
2022-11-13T03:18:30.641Z,63.20
2022-11-13T03:19:02.220Z,63.20
2022-11-13T03:19:33.682Z,63.20
2022-11-13T03:20:05.148Z,63.20
2022-11-13T03:20:36.618Z,63.10
2022-11-13T03:21:08.096Z,63.20
2022-11-13T03:21:39.567Z,63.10
2022-11-13T03:22:11.043Z,63.20
2022-11-13T03:22:42.513Z,63.10
2022-11-13T03:23:13.981Z,63.00
2022-11-13T03:23:45.467Z,63.00
2022-11-13T03:24:16.965Z,63.00
2022-11-13T03:24:48.445Z,63.00
2022-11-13T03:25:19.917Z,62.90
2022-11-13T03:25:51.387Z,62.90
2022-11-13T03:26:22.929Z,63.00
2022-11-13T03:26:54.418Z,62.90
2022-11-13T03:27:25.924Z,62.90
2022-11-13T03:27:57.383Z,63.00
2022-11-13T03:28:29.063Z,63.00
2022-11-13T03:29:00.727Z,63.00
2022-11-13T03:29:32.196Z,63.00
2022-11-13T03:30:03.698Z,63.00
2022-11-13T03:30:35.175Z,63.00
2022-11-13T03:31:06.655Z,63.10
2022-11-13T03:31:38.132Z,63.20
2022-11-13T03:32:09.610Z,63.30
2022-11-13T03:32:41.072Z,63.20
2022-11-13T03:33:12.535Z,63.90
2022-11-13T03:33:44.003Z,63.20
2022-11-13T03:34:15.488Z,63.30
2022-11-13T03:34:46.959Z,64.10
2022-11-13T03:35:18.426Z,63.40
2022-11-13T03:35:49.905Z,63.20
2022-11-13T03:36:21.401Z,63.40
2022-11-13T03:36:52.884Z,63.40
2022-11-13T03:37:24.343Z,63.30
2022-11-13T03:37:55.830Z,63.30
2022-11-13T03:38:27.722Z,63.30
2022-11-13T03:38:59.453Z,63.30
2022-11-13T03:39:30.910Z,63.30
2022-11-13T03:40:02.441Z,63.30
2022-11-13T03:40:33.919Z,63.30
2022-11-13T03:41:05.392Z,63.30
2022-11-13T03:41:36.851Z,63.30
2022-11-13T03:42:08.336Z,63.40
2022-11-13T03:42:39.819Z,63.40
2022-11-13T03:43:11.304Z,63.40
2022-11-13T03:43:42.779Z,63.50
2022-11-13T03:44:14.260Z,63.40
2022-11-13T03:44:45.728Z,63.50
2022-11-13T03:45:17.197Z,63.40
2022-11-13T03:45:48.673Z,63.40
2022-11-13T03:46:20.145Z,63.50
2022-11-13T03:46:51.633Z,63.50
2022-11-13T03:47:23.124Z,63.50
2022-11-13T03:47:54.593Z,63.20
2022-11-13T03:48:26.352Z,63.30
2022-11-13T03:48:58.100Z,63.30
2022-11-13T03:49:29.563Z,63.30
2022-11-13T03:50:01.049Z,63.20
2022-11-13T03:50:32.521Z,63.10
2022-11-13T03:51:03.978Z,63.10
2022-11-13T03:51:35.449Z,63.30
2022-11-13T03:52:06.911Z,63.00
2022-11-13T03:52:38.409Z,62.90
2022-11-13T03:53:09.878Z,62.90
2022-11-13T03:53:41.347Z,62.90
2022-11-13T03:54:12.802Z,62.90
2022-11-13T03:54:44.277Z,62.90
2022-11-13T03:55:15.743Z,63.00
2022-11-13T03:55:47.220Z,62.90
2022-11-13T03:56:18.696Z,62.90
2022-11-13T03:56:50.161Z,62.90
2022-11-13T03:57:21.636Z,63.00
2022-11-13T03:57:53.141Z,62.90
2022-11-13T03:58:24.765Z,62.90
2022-11-13T03:58:56.378Z,62.90
2022-11-13T03:59:27.834Z,62.90
2022-11-13T03:59:59.295Z,62.80
2022-11-13T04:00:30.761Z,62.90
2022-11-13T04:01:02.226Z,62.70
2022-11-13T04:01:33.838Z,62.70
2022-11-13T04:02:05.420Z,62.70
2022-11-13T04:02:36.932Z,62.70
2022-11-13T04:03:08.410Z,62.70
2022-11-13T04:03:39.884Z,63.40
2022-11-13T04:04:11.357Z,62.80
2022-11-13T04:04:42.833Z,62.80
2022-11-13T04:05:17.510Z,62.80
2022-11-13T04:05:53.007Z,62.70
2022-11-13T04:06:24.467Z,62.90
2022-11-13T04:06:55.985Z,62.70
2022-11-13T04:07:27.473Z,62.90
2022-11-13T04:07:58.950Z,62.90
2022-11-13T04:08:30.767Z,63.00
2022-11-13T04:09:02.536Z,63.00
2022-11-13T04:09:34.003Z,62.90
2022-11-13T04:10:05.479Z,63.00
2022-11-13T04:10:36.961Z,63.00
2022-11-13T04:11:08.485Z,63.10
2022-11-13T04:11:39.943Z,63.00
2022-11-13T04:12:11.404Z,63.20
2022-11-13T04:12:42.865Z,63.00
2022-11-13T04:13:14.365Z,63.10
2022-11-13T04:13:45.851Z,62.80
2022-11-13T04:14:17.390Z,63.00
2022-11-13T04:14:48.849Z,63.00
2022-11-13T04:15:20.316Z,63.00
2022-11-13T04:15:51.783Z,62.70
2022-11-13T04:16:23.243Z,62.70
2022-11-13T04:16:54.717Z,62.60
2022-11-13T04:17:26.195Z,62.90
2022-11-13T04:17:57.655Z,62.60
2022-11-13T04:18:29.555Z,62.50
2022-11-13T04:19:01.340Z,62.60
2022-11-13T04:19:32.827Z,62.60
2022-11-13T04:20:04.365Z,62.60
2022-11-13T04:20:35.840Z,62.60
2022-11-13T04:21:07.327Z,62.60
2022-11-13T04:21:38.788Z,62.60
2022-11-13T04:22:10.262Z,62.60
2022-11-13T04:22:42.114Z,62.60
2022-11-13T04:23:13.581Z,62.70
2022-11-13T04:23:45.053Z,62.80
2022-11-13T04:24:16.551Z,62.70
2022-11-13T04:24:48.052Z,62.70
2022-11-13T04:25:19.531Z,62.80
2022-11-13T04:25:50.987Z,62.80
2022-11-13T04:26:22.457Z,62.70
2022-11-13T04:26:53.919Z,62.70
2022-11-13T04:27:25.388Z,62.70
2022-11-13T04:27:56.855Z,62.70
2022-11-13T04:28:28.755Z,62.80
2022-11-13T04:29:00.421Z,62.70
2022-11-13T04:29:31.888Z,62.90
2022-11-13T04:30:03.381Z,62.80
2022-11-13T04:30:34.847Z,62.70
2022-11-13T04:31:06.330Z,62.70
2022-11-13T04:31:37.796Z,62.80
2022-11-13T04:32:09.265Z,62.80
2022-11-13T04:32:40.736Z,62.90
2022-11-13T04:33:12.211Z,62.80
2022-11-13T04:33:43.708Z,62.70
2022-11-13T04:34:15.181Z,62.70
2022-11-13T04:34:46.656Z,62.60
2022-11-13T04:35:18.148Z,62.60
2022-11-13T04:35:49.612Z,62.60
2022-11-13T04:36:21.081Z,62.60
2022-11-13T04:36:52.569Z,62.60
2022-11-13T04:37:24.037Z,62.60
2022-11-13T04:37:55.504Z,62.50
2022-11-13T04:38:27.438Z,62.50
2022-11-13T04:38:59.204Z,62.50
2022-11-13T04:39:30.659Z,62.50
2022-11-13T04:40:02.151Z,62.60
2022-11-13T04:40:33.616Z,62.60
2022-11-13T04:41:05.097Z,62.60
2022-11-13T04:41:36.602Z,62.60
2022-11-13T04:42:08.060Z,62.60
2022-11-13T04:42:39.519Z,62.70
2022-11-13T04:43:10.980Z,62.90
2022-11-13T04:43:42.440Z,62.80
2022-11-13T04:44:13.969Z,62.70
2022-11-13T04:44:45.483Z,62.80
2022-11-13T04:45:16.971Z,62.50
2022-11-13T04:45:48.431Z,62.60
2022-11-13T04:46:19.891Z,62.70
2022-11-13T04:46:51.372Z,62.60
2022-11-13T04:47:22.876Z,62.50
2022-11-13T04:47:54.424Z,62.50
2022-11-13T04:48:26.184Z,62.30
2022-11-13T04:48:57.833Z,62.60
2022-11-13T04:49:29.295Z,63.10
2022-11-13T04:50:00.762Z,62.20
2022-11-13T04:50:32.283Z,62.30
2022-11-13T04:51:03.744Z,62.30
2022-11-13T04:51:35.204Z,62.50
2022-11-13T04:52:06.797Z,62.40
2022-11-13T04:52:38.261Z,62.40
2022-11-13T04:53:09.718Z,62.50
2022-11-13T04:53:41.185Z,62.50
2022-11-13T04:54:12.679Z,62.50
2022-11-13T04:54:44.158Z,62.50
2022-11-13T04:55:15.634Z,62.50
2022-11-13T04:55:47.126Z,62.60
2022-11-13T04:56:18.586Z,62.50
2022-11-13T04:56:50.075Z,62.50
2022-11-13T04:57:21.597Z,62.50
2022-11-13T04:57:53.075Z,62.50
2022-11-13T04:58:24.542Z,62.40
2022-11-13T04:58:56.047Z,62.50
2022-11-13T04:59:27.540Z,62.60
2022-11-13T04:59:59.103Z,62.50
2022-11-13T05:00:30.613Z,62.50
2022-11-13T05:01:02.207Z,62.50
2022-11-13T05:01:33.757Z,62.60
2022-11-13T05:02:05.289Z,62.50
2022-11-13T05:02:36.773Z,62.40
2022-11-13T05:03:08.235Z,62.50
2022-11-13T05:03:39.753Z,62.50
2022-11-13T05:04:11.210Z,62.50
2022-11-13T05:04:42.679Z,62.50
2022-11-13T05:05:14.150Z,62.60
2022-11-13T05:05:45.650Z,62.60
2022-11-13T05:06:17.228Z,62.60
2022-11-13T05:06:48.752Z,62.60
2022-11-13T05:07:20.282Z,62.60
2022-11-13T05:07:51.771Z,62.50
2022-11-13T05:08:23.239Z,62.50
2022-11-13T05:08:54.729Z,62.40
2022-11-13T05:09:26.208Z,62.40
2022-11-13T05:09:57.689Z,62.50
2022-11-13T05:10:29.155Z,62.30
2022-11-13T05:11:00.642Z,62.30
2022-11-13T05:11:32.115Z,62.20
2022-11-13T05:12:03.579Z,62.30
2022-11-13T05:12:35.181Z,62.10
2022-11-13T05:13:06.648Z,62.00
2022-11-13T05:13:38.114Z,62.20
2022-11-13T05:14:09.581Z,62.00
2022-11-13T05:14:41.055Z,62.00
2022-11-13T05:15:12.516Z,62.00
2022-11-13T05:15:43.980Z,61.90
2022-11-13T05:16:15.464Z,61.90
2022-11-13T05:16:46.928Z,61.90
2022-11-13T05:17:18.391Z,61.80
2022-11-13T05:17:49.876Z,61.90
2022-11-13T05:18:21.348Z,61.90
2022-11-13T05:18:52.843Z,61.90
2022-11-13T05:19:24.318Z,62.00
2022-11-13T05:19:55.804Z,62.00
2022-11-13T05:20:27.264Z,62.00
2022-11-13T05:20:58.731Z,62.00
2022-11-13T05:21:30.221Z,62.20
2022-11-13T05:22:01.712Z,62.10
2022-11-13T05:22:33.318Z,62.10
2022-11-13T05:23:04.793Z,62.00
2022-11-13T05:23:36.263Z,62.10
2022-11-13T05:24:07.729Z,62.00
2022-11-13T05:24:39.209Z,62.10
2022-11-13T05:25:10.681Z,62.20
2022-11-13T05:25:42.383Z,62.10
2022-11-13T05:26:13.869Z,62.10
2022-11-13T05:26:45.336Z,62.10
2022-11-13T05:27:17.737Z,62.10
2022-11-13T05:27:49.444Z,62.10
2022-11-13T05:28:20.908Z,62.10
2022-11-13T05:28:52.372Z,62.10
2022-11-13T05:29:23.856Z,62.20
2022-11-13T05:29:55.322Z,62.20
2022-11-13T05:30:26.793Z,62.10
2022-11-13T05:30:58.387Z,62.20
2022-11-13T05:31:29.853Z,62.20
2022-11-13T05:32:01.336Z,62.20
2022-11-13T05:32:32.820Z,62.20
2022-11-13T05:33:04.352Z,62.20
2022-11-13T05:33:35.828Z,62.20
2022-11-13T05:34:07.301Z,62.20
2022-11-13T05:34:38.773Z,62.20
2022-11-13T05:35:10.288Z,62.30
2022-11-13T05:35:41.756Z,62.20
2022-11-13T05:36:13.223Z,62.30
2022-11-13T05:36:44.707Z,62.30
2022-11-13T05:37:16.176Z,62.20
2022-11-13T05:37:47.648Z,62.20
2022-11-13T05:38:19.108Z,62.20
2022-11-13T05:38:50.574Z,62.30
2022-11-13T05:39:22.051Z,62.30
2022-11-13T05:39:53.527Z,62.30
2022-11-13T05:40:24.997Z,62.30
2022-11-13T05:40:56.473Z,62.00
2022-11-13T05:41:27.935Z,62.10
2022-11-13T05:41:59.428Z,62.20
2022-11-13T05:42:30.895Z,62.10
2022-11-13T05:43:02.381Z,62.00
2022-11-13T05:43:33.858Z,61.90
2022-11-13T05:44:05.324Z,61.80
2022-11-13T05:44:36.781Z,61.90
2022-11-13T05:45:08.263Z,61.70
2022-11-13T05:45:39.723Z,61.60
2022-11-13T05:46:11.201Z,61.70
2022-11-13T05:46:42.675Z,61.80
2022-11-13T05:47:14.157Z,61.70
2022-11-13T05:47:45.616Z,61.70
2022-11-13T05:48:17.076Z,61.70
2022-11-13T05:48:48.544Z,61.70
2022-11-13T05:49:20.015Z,61.70
2022-11-13T05:49:51.484Z,61.70
2022-11-13T05:50:22.948Z,61.60
2022-11-13T05:50:54.408Z,61.60
2022-11-13T05:51:25.932Z,61.60
2022-11-13T05:51:57.413Z,61.60
2022-11-13T05:52:28.886Z,61.60
2022-11-13T05:53:00.365Z,61.60
2022-11-13T05:53:31.832Z,61.70
2022-11-13T05:54:03.314Z,61.70
2022-11-13T05:54:34.805Z,61.70
2022-11-13T05:55:06.290Z,61.80
2022-11-13T05:55:37.755Z,61.70
2022-11-13T05:56:09.233Z,61.80
2022-11-13T05:56:40.704Z,61.70
2022-11-13T05:57:12.193Z,61.70
2022-11-13T05:57:43.676Z,61.80
2022-11-13T05:58:15.148Z,61.70
2022-11-13T05:58:46.609Z,61.90
2022-11-13T05:59:18.075Z,61.70
2022-11-13T05:59:49.580Z,61.70
2022-11-13T06:00:21.040Z,61.80
2022-11-13T06:00:52.518Z,61.80
2022-11-13T06:01:23.991Z,61.80
2022-11-13T06:01:55.516Z,61.80
2022-11-13T06:02:27.037Z,62.60
2022-11-13T06:02:58.533Z,61.90
2022-11-13T06:03:30.008Z,61.90
2022-11-13T06:04:01.489Z,61.90
2022-11-13T06:04:32.962Z,62.00
2022-11-13T06:05:04.434Z,61.90
2022-11-13T06:05:35.903Z,61.90
2022-11-13T06:06:07.379Z,61.90
2022-11-13T06:06:38.921Z,61.90
2022-11-13T06:07:10.521Z,62.20
2022-11-13T06:07:42.005Z,61.90
2022-11-13T06:08:13.472Z,61.90
2022-11-13T06:08:44.937Z,62.00
2022-11-13T06:09:16.402Z,61.90
2022-11-13T06:09:47.873Z,61.90
2022-11-13T06:10:19.364Z,61.90
2022-11-13T06:10:50.829Z,61.90
2022-11-13T06:11:22.329Z,62.00
2022-11-13T06:11:53.817Z,61.90
2022-11-13T06:12:25.288Z,62.00
2022-11-13T06:12:56.767Z,61.90
2022-11-13T06:13:28.248Z,61.70
2022-11-13T06:13:59.707Z,62.00
2022-11-13T06:14:31.176Z,61.90
2022-11-13T06:15:02.644Z,61.90
2022-11-13T06:15:34.109Z,61.70
2022-11-13T06:16:05.571Z,61.90
2022-11-13T06:16:37.027Z,61.70
2022-11-13T06:17:08.492Z,61.70
2022-11-13T06:17:39.958Z,61.60
2022-11-13T06:18:11.493Z,61.60
2022-11-13T06:18:42.971Z,61.50
2022-11-13T06:19:14.454Z,61.60
2022-11-13T06:19:45.932Z,61.60
2022-11-13T06:20:17.414Z,61.50
2022-11-13T06:20:48.880Z,61.50
2022-11-13T06:21:20.340Z,61.50
2022-11-13T06:21:51.817Z,61.40
2022-11-13T06:22:23.280Z,61.40
2022-11-13T06:22:54.753Z,61.30
2022-11-13T06:23:26.222Z,61.40
2022-11-13T06:23:57.683Z,61.30
2022-11-13T06:24:29.170Z,61.40
2022-11-13T06:25:00.651Z,61.30
2022-11-13T06:25:32.121Z,61.30
2022-11-13T06:26:03.606Z,61.30
2022-11-13T06:26:35.076Z,61.20
2022-11-13T06:27:06.544Z,61.30
2022-11-13T06:27:38.003Z,61.30
2022-11-13T06:28:09.479Z,61.30
2022-11-13T06:28:40.995Z,61.30
2022-11-13T06:29:12.595Z,61.30
2022-11-13T06:29:44.052Z,61.30
2022-11-13T06:30:15.528Z,61.40
2022-11-13T06:30:46.988Z,61.50
2022-11-13T06:31:18.459Z,61.50
2022-11-13T06:31:50.032Z,61.50
2022-11-13T06:32:21.668Z,61.50
2022-11-13T06:32:53.141Z,61.50
2022-11-13T06:33:24.608Z,61.50
2022-11-13T06:33:56.080Z,61.60
2022-11-13T06:34:27.558Z,61.50
2022-11-13T06:34:59.124Z,61.60
2022-11-13T06:35:30.628Z,61.60
2022-11-13T06:36:02.098Z,61.60
2022-11-13T06:36:33.580Z,61.60
2022-11-13T06:37:05.054Z,61.60
2022-11-13T06:37:36.515Z,61.60
2022-11-13T06:38:07.976Z,61.50
2022-11-13T06:38:39.500Z,61.60
2022-11-13T06:39:11.070Z,61.60
2022-11-13T06:39:42.600Z,61.60
2022-11-13T06:40:14.085Z,61.50
2022-11-13T06:40:45.554Z,61.50
2022-11-13T06:41:17.019Z,61.30
2022-11-13T06:41:48.482Z,61.40
2022-11-13T06:42:19.951Z,61.40
2022-11-13T06:42:51.410Z,61.30
2022-11-13T06:43:22.885Z,61.30
2022-11-13T06:43:56.524Z,61.20
2022-11-13T06:44:31.331Z,61.30
2022-11-13T06:45:02.798Z,61.40
2022-11-13T06:45:34.335Z,61.30
2022-11-13T06:46:05.807Z,61.30
2022-11-13T06:46:37.285Z,61.40
2022-11-13T06:47:08.768Z,61.40
2022-11-13T06:47:40.275Z,61.30